createdAt,value
2019-03-31T00:01:52.581Z,41.93
2019-03-31T00:06:54.572Z,40.33
2019-03-31T00:11:56.665Z,39.10
2019-03-31T00:16:58.674Z,39.27
2019-03-31T00:22:00.737Z,39.50
2019-03-31T00:27:02.745Z,38.30
2019-03-31T00:32:04.801Z,37.80
2019-03-31T00:37:07.766Z,35.10
2019-03-31T00:42:10.100Z,37.07
2019-03-31T00:47:12.130Z,35.07
2019-03-31T00:52:14.160Z,36.30
2019-03-31T00:57:16.169Z,34.77
2019-03-31T01:02:21.728Z,35.13
2019-03-31T01:07:25.231Z,37.67
2019-03-31T01:12:27.907Z,38.33
2019-03-31T01:17:30.104Z,34.73
2019-03-31T01:22:32.398Z,37.37
2019-03-31T01:27:34.396Z,37.90
2019-03-31T01:32:36.655Z,36.87
2019-03-31T01:37:38.851Z,39.93
2019-03-31T01:42:40.848Z,38.40
2019-03-31T01:47:42.859Z,38.10
2019-03-31T01:52:44.900Z,37.47
2019-03-31T01:57:46.907Z,38.30
2019-03-31T02:02:49.012Z,37.87
2019-03-31T02:07:51.010Z,38.43
2019-03-31T02:12:53.026Z,40.10
2019-03-31T02:17:55.123Z,38.67
2019-03-31T02:22:57.194Z,37.03
2019-03-31T02:27:59.276Z,37.60
2019-03-31T02:33:01.367Z,37.23
2019-03-31T02:38:03.445Z,37.67
2019-03-31T02:43:05.568Z,38.33
2019-03-31T02:48:07.610Z,36.87
2019-03-31T02:53:09.697Z,36.73
2019-03-31T02:58:12.311Z,37.27
2019-03-31T03:03:14.789Z,36.97
2019-03-31T03:08:20.735Z,35.37
2019-03-31T03:13:23.439Z,36.80
2019-03-31T03:18:25.556Z,35.67
2019-03-31T03:23:27.553Z,34.90
2019-03-31T03:28:29.618Z,34.80
2019-03-31T03:33:31.721Z,34.57
2019-03-31T03:38:33.777Z,34.43
2019-03-31T03:43:53.498Z,35.87
2019-03-31T03:48:39.702Z,35.17
2019-03-31T03:53:41.773Z,33.77
2019-03-31T03:58:43.865Z,32.47
2019-03-31T04:03:45.855Z,32.53
2019-03-31T04:08:48.337Z,32.77
2019-03-31T04:13:50.425Z,32.37
2019-03-31T04:18:52.490Z,30.03
2019-03-31T04:23:54.704Z,31.40
2019-03-31T04:28:56.772Z,30.40
2019-03-31T04:33:58.783Z,32.60
2019-03-31T04:39:01.024Z,31.27
2019-03-31T04:44:03.234Z,32.23
2019-03-31T04:49:05.302Z,31.27
2019-03-31T04:54:07.322Z,31.97
2019-03-31T04:59:09.337Z,30.90
2019-03-31T05:04:11.767Z,29.13
2019-03-31T05:09:13.850Z,32.97
2019-03-31T05:14:15.850Z,31.43
2019-03-31T05:19:17.863Z,33.47
2019-03-31T05:24:19.898Z,31.33
2019-03-31T05:29:21.970Z,32.13
2019-03-31T05:34:24.073Z,29.97
2019-03-31T05:39:26.078Z,32.00
2019-03-31T05:44:28.126Z,28.20
2019-03-31T05:49:30.114Z,30.00
2019-03-31T05:54:32.294Z,31.63
2019-03-31T05:59:34.330Z,31.00
2019-03-31T06:04:36.363Z,28.50
2019-03-31T06:09:38.355Z,26.70
2019-03-31T06:14:40.425Z,28.83
2019-03-31T06:19:42.421Z,30.43
2019-03-31T06:24:44.556Z,27.77
2019-03-31T06:29:46.549Z,28.60
2019-03-31T06:34:48.589Z,25.70
2019-03-31T06:39:50.570Z,29.60
2019-03-31T06:44:52.612Z,28.23
2019-03-31T06:49:54.628Z,27.40
2019-03-31T06:54:56.685Z,25.13
2019-03-31T06:59:58.691Z,28.23
2019-03-31T07:05:01.777Z,26.03
2019-03-31T07:10:04.669Z,26.10
2019-03-31T07:15:07.993Z,24.73
2019-03-31T07:20:10.981Z,24.77
2019-03-31T07:25:13.362Z,24.30
2019-03-31T07:30:15.912Z,25.97
2019-03-31T07:35:18.995Z,24.03
2019-03-31T07:40:21.844Z,25.60
2019-03-31T07:45:24.088Z,24.07
2019-03-31T07:50:28.311Z,23.20
2019-03-31T07:55:29.994Z,24.23
2019-03-31T08:00:32.002Z,22.53
2019-03-31T08:05:37.570Z,20.03
2019-03-31T08:10:37.887Z,20.67
2019-03-31T08:15:39.971Z,18.50
2019-03-31T08:20:42.054Z,19.60
2019-03-31T08:25:44.125Z,22.43
2019-03-31T08:30:46.789Z,20.43
2019-03-31T08:35:48.809Z,18.47
2019-03-31T08:40:50.818Z,20.63
2019-03-31T08:45:52.830Z,9.90
2019-03-31T08:50:54.866Z,15.37
2019-03-31T08:55:56.887Z,14.97
2019-03-31T09:01:03.789Z,24.47
2019-03-31T09:06:05.793Z,20.43
2019-03-31T09:11:10.589Z,19.57
2019-03-31T09:16:12.593Z,20.37
2019-03-31T09:21:14.593Z,19.07
2019-03-31T09:26:16.731Z,20.07
2019-03-31T09:31:18.912Z,21.80
2019-03-31T09:36:20.956Z,21.30
2019-03-31T09:41:23.013Z,21.10
2019-03-31T09:46:25.113Z,20.27
2019-03-31T09:51:27.175Z,23.17
2019-03-31T09:56:29.143Z,19.30
2019-03-31T10:01:31.209Z,15.17
2019-03-31T10:06:33.413Z,21.37
2019-03-31T10:11:35.454Z,16.50
2019-03-31T10:16:37.474Z,20.17
2019-03-31T10:21:39.549Z,17.93
2019-03-31T10:26:41.553Z,19.87
2019-03-31T10:31:43.614Z,17.97
2019-03-31T10:36:45.684Z,20.30
2019-03-31T10:41:47.761Z,16.27
2019-03-31T10:46:49.973Z,16.63
2019-03-31T10:51:52.032Z,12.47
2019-03-31T10:56:54.137Z,21.97
2019-03-31T11:01:56.241Z,19.87
2019-03-31T11:07:00.482Z,5.27
2019-03-31T11:12:02.120Z,21.93
2019-03-31T11:17:04.141Z,21.73
2019-03-31T11:22:19.977Z,20.10
2019-03-31T11:27:22.346Z,22.20
2019-03-31T11:32:24.376Z,23.53
2019-03-31T11:37:26.381Z,21.03
2019-03-31T11:42:28.493Z,18.83
2019-03-31T11:47:30.484Z,25.10
2019-03-31T11:52:32.520Z,28.70
2019-03-31T11:57:34.538Z,23.03
2019-03-31T12:02:36.785Z,16.70
2019-03-31T12:07:46.498Z,23.37
2019-03-31T12:12:42.686Z,26.77
2019-03-31T12:17:44.696Z,24.87
2019-03-31T12:22:46.749Z,23.77
2019-03-31T12:27:48.754Z,26.87
2019-03-31T12:32:50.821Z,22.67
2019-03-31T12:37:52.823Z,21.03
2019-03-31T12:42:54.889Z,21.47
2019-03-31T12:47:56.913Z,21.97
2019-03-31T12:52:59.137Z,26.10
2019-03-31T12:58:01.156Z,22.87
2019-03-31T13:03:03.213Z,24.57
2019-03-31T13:08:05.210Z,21.97
2019-03-31T13:13:07.200Z,21.50
2019-03-31T13:18:09.219Z,18.03
2019-03-31T13:23:11.275Z,23.83
2019-03-31T13:28:13.290Z,25.47
2019-03-31T13:33:15.292Z,21.97
2019-03-31T13:38:17.444Z,22.20
2019-03-31T13:43:19.425Z,19.90
2019-03-31T13:48:21.427Z,18.87
2019-03-31T13:53:23.421Z,19.53
2019-03-31T13:58:26.032Z,18.60
2019-03-31T14:03:28.573Z,13.53
2019-03-31T14:08:30.601Z,11.97
2019-03-31T14:13:32.593Z,12.70
2019-03-31T14:18:34.696Z,11.73
2019-03-31T14:23:36.705Z,10.77
2019-03-31T14:28:38.745Z,8.07
2019-03-31T14:33:40.774Z,9.37
2019-03-31T14:38:42.873Z,8.43
2019-03-31T14:43:44.878Z,9.50
2019-03-31T14:48:46.979Z,9.17
2019-03-31T14:53:48.981Z,8.17
2019-03-31T14:58:51.059Z,8.27
2019-03-31T15:03:53.059Z,7.50
2019-03-31T15:08:55.101Z,5.17
2019-03-31T15:13:57.113Z,7.43
2019-03-31T15:18:59.207Z,7.03
2019-03-31T15:24:01.205Z,4.27
2019-03-31T15:29:03.389Z,6.60
2019-03-31T15:34:05.381Z,5.07
2019-03-31T15:39:09.072Z,5.57
2019-03-31T15:44:11.333Z,5.87
2019-03-31T15:49:13.429Z,5.87
2019-03-31T15:54:15.417Z,5.60
2019-03-31T15:59:17.479Z,4.60
2019-03-31T16:04:19.561Z,3.53
2019-03-31T16:09:23.671Z,3.50
2019-03-31T16:14:24.905Z,3.00
2019-03-31T16:19:26.677Z,3.53
2019-03-31T16:24:37.819Z,2.80
2019-03-31T16:29:39.641Z,2.70
2019-03-31T16:34:41.365Z,3.67
2019-03-31T16:39:43.205Z,2.93
2019-03-31T16:44:57.661Z,3.43
2019-03-31T16:49:48.493Z,3.53
2019-03-31T16:54:50.209Z,3.30
2019-03-31T16:59:52.036Z,3.20
2019-03-31T17:04:53.772Z,3.20
2019-03-31T17:09:55.599Z,2.87
2019-03-31T17:14:57.317Z,3.50
2019-03-31T17:19:59.104Z,3.33
2019-03-31T17:25:00.834Z,3.20
2019-03-31T17:30:03.554Z,3.33
2019-03-31T17:35:05.395Z,4.27
2019-03-31T17:40:07.387Z,3.40
2019-03-31T17:45:09.093Z,3.07
2019-03-31T17:50:10.821Z,3.60
2019-03-31T17:55:12.711Z,3.47
2019-03-31T18:00:14.455Z,2.97
2019-03-31T18:05:16.202Z,3.83
2019-03-31T18:10:21.122Z,3.20
2019-03-31T18:15:21.436Z,2.90
2019-03-31T18:20:23.162Z,3.23
2019-03-31T18:25:24.904Z,4.13
2019-03-31T18:30:26.624Z,4.10
2019-03-31T18:35:28.458Z,5.13
2019-03-31T18:40:35.138Z,4.07
2019-03-31T18:45:33.766Z,3.07
2019-03-31T18:50:35.583Z,3.50
2019-03-31T18:55:46.870Z,3.47
2019-03-31T19:01:20.446Z,3.63
2019-03-31T19:06:47.367Z,2.83
2019-03-31T19:12:06.061Z,36.93
2019-03-31T19:17:26.103Z,3.33
2019-03-31T19:22:50.453Z,3.20
2019-03-31T19:28:15.675Z,3.60
2019-03-31T19:33:42.787Z,3.23
2019-03-31T19:39:10.069Z,3.40
2019-03-31T19:44:43.600Z,3.17
2019-03-31T19:50:02.511Z,4.20
2019-03-31T19:55:35.930Z,3.97
2019-03-31T20:00:54.628Z,4.97
2019-03-31T20:06:17.798Z,6.87
2019-03-31T20:11:39.441Z,5.33
2019-03-31T20:17:00.646Z,2.30
2019-03-31T20:22:40.510Z,7.43
2019-03-31T20:27:51.856Z,4.50
2019-03-31T20:33:15.777Z,2.17
2019-03-31T20:38:26.552Z,3.23
2019-03-31T20:43:48.408Z,2.30
2019-03-31T20:48:50.418Z,3.20
2019-03-31T20:53:52.200Z,2.43
2019-03-31T20:58:53.957Z,2.50
2019-03-31T21:03:55.765Z,2.33
2019-03-31T21:08:57.645Z,2.17
2019-03-31T21:13:59.389Z,2.53
2019-03-31T21:19:01.183Z,2.20
2019-03-31T21:24:02.939Z,2.10
2019-03-31T21:29:04.730Z,2.30
2019-03-31T21:34:06.494Z,2.10
2019-03-31T21:39:08.273Z,2.53
2019-03-31T21:44:10.013Z,2.33
2019-03-31T21:49:11.725Z,2.63
2019-03-31T21:54:13.453Z,2.60
2019-03-31T21:59:15.286Z,2.03
2019-03-31T22:04:17.025Z,2.53
2019-03-31T22:09:18.827Z,2.60
2019-03-31T22:14:20.548Z,2.80
2019-03-31T22:19:22.382Z,2.97
2019-03-31T22:24:24.094Z,2.87
2019-03-31T22:29:25.834Z,2.90
2019-03-31T22:34:27.604Z,2.27
2019-03-31T22:39:29.377Z,2.60
2019-03-31T22:44:31.092Z,3.30
2019-03-31T22:49:32.828Z,3.10
2019-03-31T22:54:34.548Z,3.17
2019-03-31T22:59:36.274Z,3.40
2019-03-31T23:04:38.064Z,3.27
2019-03-31T23:09:39.800Z,3.60
2019-03-31T23:14:41.621Z,3.27
2019-03-31T23:19:43.346Z,3.50
2019-03-31T23:24:45.173Z,3.93
2019-03-31T23:29:46.899Z,3.87
2019-03-31T23:34:48.728Z,4.30
2019-03-31T23:39:50.454Z,3.77
2019-03-31T23:44:52.282Z,3.70
2019-03-31T23:49:54.001Z,3.60
2019-03-31T23:54:55.826Z,3.80
2019-03-31T23:59:57.605Z,3.60
